LGKR Airport Information

Runway Information
Runway 16 Length 7792 ft width 148 ft Elevation 5 ft Threshold 1348 ft Heading 169
Runway 34 Length 7792 ft Width 148 ft Elevation 5 ft Threshold 213 ft Heading 349
Airport Frequencies
Type A/G Name KERKIRA RD Frequency 563.7 MHZ
Type APP Name KERKIRA AP Frequency 118.075 MHZ
Type ATIS Name ATIS Frequency 126.35 MHZ
Type TWR Name KERKIRA TW Frequency 120.85 MHZ
Airport Navaids
Type VOR-DME Name Garitsa Frequency 108800 KHZ
Type NDB Name Kerkira Frequency 403 KHZ
Type VOR-DME Name Kerkira Frequency 114700 KHZ
Airport Weather Information & NOTAM
ADDS - METARS form results

(0304 UTC 12 August 2022)
Data provider http://aviationweather.gov/metar/data/
 
METAR text: LGKR 120250Z 00000KT 9999 FEW030 23/20 Q1010 NOSIG
Conditions at: LGKR (IOANNIS KAPODIST, GR) observed 0250 UTC 12 August 2022
Temperature: 23.0°C (73°F)
Dewpoint: 20.0°C (68°F) [RH = 83%]
Pressure (altimeter): 29.82 inches Hg (1010.0 mb)
Winds: calm
Visibility: 6 or more miles (10+ km)
Ceiling: at least 12,000 feet AGL
Clouds: few clouds at 3000 feet AGL
Weather: no significant weather observed at this time

METAR text: LGKR 120220Z 00000KT 9999 FEW030 23/20 Q1010 NOSIG
Conditions at: LGKR (IOANNIS KAPODIST, GR) observed 0220 UTC 12 August 2022
Temperature: 23.0°C (73°F)
Dewpoint: 20.0°C (68°F) [RH = 83%]
Pressure (altimeter): 29.82 inches Hg (1010.0 mb)
Winds: calm
Visibility: 6 or more miles (10+ km)
Ceiling: at least 12,000 feet AGL
Clouds: few clouds at 3000 feet AGL
Weather: no significant weather observed at this time

Forecast for: LGKR (IOANNIS KAPODIST, GR)
Text: TAF LGKR 112300Z 1200/1224 13008KT 9999 FEW030
Forecast period: 0000 UTC 12 August 2022 to 0000 UTC 13 August 2022
Forecast type: FROM: standard forecast or significant change
Winds: from the SE (130 degrees) at 9 MPH (8 knots; 4.1 m/s)
Visibility: 6 or more miles (10+ km)
Ceiling: at least 12,000 feet AGL
Clouds: few clouds at 3000 feet AGL
Weather: no significant weather forecast for this period
Text: PROB30
Forecast period: 0900 to 1500 UTC 12 August 2022
Forecast type: TEMPORARY: The following changes expected for less than half the time period
Visibility: 3 miles (5 km)
Ceiling: 5000 feet AGL
Clouds: scattered clouds at 1800 feet AGL
broken clouds at 5000 feet AGL
Weather: RA  (moderate rain)